Time;durP1;ratioP1;P1;durP2;ratioP2;P2;SDS_P1;SDS_P2;PMS_P1;PMS_P2;Temp;Humidity;BMP_temperature;BMP_pressure;BME280_temperature;BME280_humidity;BME280_pressure;Samples;Min_cycle;Max_cycle;Signal;HPM_P1;HPM_P2
2022/03/30 00:02:27;;;;;;;42.50;24.20;;;;;;;3.34;65.05;99125.03;130478;1268;98557;-70
2022/03/30 00:05:30;;;;;;;41.00;22.20;;;;;;;3.24;65.01;99119.88;130424;1266;98003;-71
2022/03/30 00:08:34;;;;;;;41.40;22.30;;;;;;;3.17;65.11;99122.26;130410;1265;99168;-72
2022/03/30 00:11:36;;;;;;;42.70;23.00;;;;;;;3.12;65.31;99112.45;130460;1268;97957;-71
2022/03/30 00:14:39;;;;;;;46.00;23.40;;;;;;;3.12;65.68;99112.52;130461;1267;98661;-71
2022/03/30 00:17:42;;;;;;;43.20;23.00;;;;;;;3.10;65.60;99111.95;130479;1265;98036;-71
2022/03/30 00:20:45;;;;;;;45.90;23.70;;;;;;;3.07;65.64;99110.45;130437;1268;99185;-70
2022/03/30 00:23:48;;;;;;;43.20;22.40;;;;;;;3.04;65.43;99108.63;130361;1266;165939;-72
2022/03/30 00:26:50;;;;;;;43.40;22.70;;;;;;;3.00;65.44;99110.58;130469;1268;98179;-70
2022/03/30 00:29:53;;;;;;;42.00;23.50;;;;;;;2.96;65.43;99107.22;130343;1268;99166;-71
2022/03/30 00:32:56;;;;;;;42.80;22.40;;;;;;;2.92;65.37;99110.41;130415;1266;98109;-72
2022/03/30 00:35:59;;;;;;;44.80;23.60;;;;;;;2.91;65.40;99107.96;130196;1268;98617;-70
2022/03/30 00:39:01;;;;;;;39.90;20.80;;;;;;;2.94;65.44;99104.35;130374;1266;99145;-72
2022/03/30 00:42:14;;;;;;;36.30;19.20;;;;;;;3.03;65.47;99100.98;130524;1266;99332;-71
2022/03/30 00:45:20;;;;;;;41.30;21.20;;;;;;;3.12;65.32;99103.18;130666;1268;99107;-74
2022/03/30 00:48:23;;;;;;;42.50;22.00;;;;;;;3.18;65.21;99098.83;130659;1266;98750;-74
2022/03/30 00:51:26;;;;;;;42.20;21.30;;;;;;;3.23;65.31;99097.30;130634;1268;99147;-70
2022/03/30 00:54:29;;;;;;;42.30;23.30;;;;;;;3.26;65.42;99094.77;130412;1268;99139;-70
2022/03/30 00:57:34;;;;;;;41.10;21.70;;;;;;;3.27;65.31;99094.00;130393;1268;97978;-70
2022/03/30 01:00:37;;;;;;;41.70;22.50;;;;;;;3.28;65.36;99089.88;130394;1267;99175;-70
2022/03/30 01:03:40;;;;;;;43.00;22.10;;;;;;;3.31;65.36;99090.11;130300;1268;99165;-71
2022/03/30 01:06:42;;;;;;;43.60;22.10;;;;;;;3.33;65.46;99084.27;130696;1268;97971;-70
2022/03/30 01:09:46;;;;;;;44.60;23.80;;;;;;;3.34;65.68;99084.35;130437;1267;98035;-69
2022/03/30 01:12:52;;;;;;;44.50;23.20;;;;;;;3.36;65.97;99086.82;130428;1268;99064;-70
2022/03/30 01:15:54;;;;;;;44.80;23.80;;;;;;;3.40;66.04;99085.97;130304;1268;98046;-71
2022/03/30 01:19:06;;;;;;;43.20;23.60;;;;;;;3.43;65.92;99083.77;130494;1267;98388;-71
2022/03/30 01:22:08;;;;;;;45.50;23.40;;;;;;;3.44;65.92;99080.20;130288;1265;98048;-70
2022/03/30 01:25:11;;;;;;;45.00;24.00;;;;;;;3.45;65.79;99076.11;130463;1268;97981;-72
2022/03/30 01:28:14;;;;;;;42.40;23.40;;;;;;;3.43;66.10;99076.23;130483;1268;98769;-74
2022/03/30 01:34:37;;;;;;;46.60;22.80;;;;;;;3.39;66.36;99066.23;130501;1268;97985;-70
2022/03/30 01:37:40;;;;;;;46.60;23.30;;;;;;;3.39;66.32;99061.82;130392;1268;99174;-70
2022/03/30 01:40:43;;;;;;;38.90;19.80;;;;;;;3.43;66.42;99064.63;130384;1265;97982;-70
2022/03/30 01:43:45;;;;;;;44.20;23.10;;;;;;;3.54;66.59;99064.89;130260;1267;98776;-70
2022/03/30 01:46:48;;;;;;;48.80;24.70;;;;;;;3.67;66.68;99060.87;130246;1268;99222;-70
2022/03/30 01:49:51;;;;;;;46.20;24.20;;;;;;;3.74;66.27;99055.54;130120;1268;97957;-70
2022/03/30 01:52:55;;;;;;;41.20;23.70;;;;;;;3.77;66.53;99052.77;130185;1265;98633;-71
2022/03/30 01:55:58;;;;;;;47.50;25.50;;;;;;;3.84;66.56;99056.41;130368;1266;97960;-72
2022/03/30 01:59:00;;;;;;;46.90;24.70;;;;;;;3.89;66.48;99052.73;130430;1265;98032;-70
2022/03/30 02:02:04;;;;;;;45.00;23.80;;;;;;;3.96;66.59;99050.39;130438;1266;98036;-69
2022/03/30 02:05:09;;;;;;;46.10;24.50;;;;;;;4.01;66.67;99047.58;130240;1267;98004;-68
2022/03/30 02:08:12;;;;;;;44.90;24.60;;;;;;;4.06;66.77;99044.13;130285;1265;97997;-70
2022/03/30 02:11:15;;;;;;;46.30;25.10;;;;;;;4.11;66.83;99044.94;130346;1267;97973;-71
2022/03/30 02:14:17;;;;;;;47.70;25.10;;;;;;;4.15;66.83;99042.06;130638;1265;98747;-71
2022/03/30 02:17:20;;;;;;;50.00;25.90;;;;;;;4.20;66.89;99037.08;130499;1265;97991;-70
2022/03/30 02:20:23;;;;;;;47.90;24.70;;;;;;;4.23;67.11;99036.77;130397;1265;98496;-72
2022/03/30 02:23:26;;;;;;;46.30;25.60;;;;;;;4.28;67.14;99032.28;130479;1265;98594;-72
2022/03/30 02:26:30;;;;;;;40.50;22.00;;;;;;;4.34;67.08;99029.92;130463;1265;98589;-70
2022/03/30 02:29:34;;;;;;;44.70;24.60;;;;;;;4.44;67.27;99028.48;130485;1265;98056;-73
2022/03/30 02:32:37;;;;;;;44.90;25.00;;;;;;;4.55;67.19;99026.45;130631;1265;98075;-72
2022/03/30 02:35:39;;;;;;;46.00;25.80;;;;;;;4.62;67.24;99025.02;130496;1268;99050;-71
2022/03/30 02:38:43;;;;;;;45.80;25.70;;;;;;;4.67;67.01;99022.30;130506;1265;98718;-71
2022/03/30 02:41:46;;;;;;;42.90;24.60;;;;;;;4.69;67.11;99023.95;130345;1265;98770;-71
2022/03/30 02:44:49;;;;;;;47.80;27.00;;;;;;;4.71;67.15;99022.63;130500;1265;99180;-73
2022/03/30 02:51:12;;;;;;;50.90;26.80;;;;;;;4.73;67.22;99024.70;130200;1265;98799;-71
2022/03/30 02:54:15;;;;;;;50.60;28.20;;;;;;;4.71;67.11;99022.01;130208;1265;99188;-69
2022/03/30 02:57:17;;;;;;;48.20;26.70;;;;;;;4.70;67.08;99021.62;130337;1265;97993;-71
2022/03/30 03:00:21;;;;;;;49.60;27.30;;;;;;;4.68;67.15;99021.95;130496;1268;98757;-71
2022/03/30 03:03:25;;;;;;;50.60;26.90;;;;;;;4.65;67.19;99024.92;130488;1268;98554;-71
2022/03/30 03:06:27;;;;;;;52.50;28.50;;;;;;;4.60;67.12;99022.77;130608;1268;99159;-72
2022/03/30 03:09:30;;;;;;;50.50;27.30;;;;;;;4.56;67.25;99020.17;130403;1268;99152;-71
2022/03/30 03:12:33;;;;;;;42.50;23.60;;;;;;;4.54;67.22;99023.33;130405;1268;97972;-71
2022/03/30 03:15:36;;;;;;;48.30;25.90;;;;;;;4.55;67.33;99028.66;130427;1268;99168;-71
2022/03/30 03:18:39;;;;;;;48.40;27.30;;;;;;;4.59;67.31;99023.95;130417;1267;99191;-70
2022/03/30 03:21:42;;;;;;;52.50;28.00;;;;;;;4.63;67.22;99019.81;130324;1266;98409;-73
2022/03/30 03:24:45;;;;;;;52.40;27.50;;;;;;;4.63;67.29;99024.10;130426;1268;99147;-72
2022/03/30 03:27:47;;;;;;;55.50;28.70;;;;;;;4.57;67.42;99022.90;130497;1268;97987;-71
2022/03/30 03:30:50;;;;;;;48.10;27.60;;;;;;;4.44;67.48;99026.20;130434;1268;99060;-71
2022/03/30 03:33:53;;;;;;;48.60;26.50;;;;;;;4.36;67.36;99024.15;130413;1268;99207;-71
2022/03/30 03:36:56;;;;;;;56.20;28.60;;;;;;;4.31;67.35;99028.47;130435;1266;98053;-71
2022/03/30 03:39:59;;;;;;;55.80;29.50;;;;;;;4.25;67.38;99028.15;130407;1268;98078;-70
2022/03/30 03:43:03;;;;;;;56.60;29.90;;;;;;;4.18;67.20;99026.91;130504;1268;97955;-71
2022/03/30 03:46:07;;;;;;;51.80;27.80;;;;;;;4.07;67.47;99027.02;130468;1268;98775;-71
2022/03/30 03:49:09;;;;;;;51.20;27.20;;;;;;;4.00;67.32;99025.23;130516;1268;98042;-71
2022/03/30 03:52:12;;;;;;;49.90;28.10;;;;;;;3.92;67.42;99029.39;130238;1268;98077;-71
2022/03/30 03:55:15;;;;;;;53.50;27.90;;;;;;;3.89;67.43;99029.20;130396;1268;97988;-71
2022/03/30 03:58:18;;;;;;;53.30;27.20;;;;;;;3.84;67.38;99031.35;130389;1268;98753;-72
2022/03/30 04:01:20;;;;;;;43.10;22.30;;;;;;;3.78;67.42;99027.90;130428;1268;99722;-71
2022/03/30 04:04:23;;;;;;;49.60;25.80;;;;;;;3.73;67.30;99025.66;130406;1267;97966;-71
2022/03/30 04:07:26;;;;;;;47.80;25.40;;;;;;;3.68;67.14;99025.09;130436;1268;99192;-71
2022/03/30 04:10:29;;;;;;;48.80;26.30;;;;;;;3.63;66.91;99022.45;130292;1268;99159;-71
2022/03/30 04:13:32;;;;;;;46.70;25.40;;;;;;;3.56;67.12;99023.59;130632;1266;97965;-71
2022/03/30 04:16:34;;;;;;;48.60;25.40;;;;;;;3.49;67.03;99025.56;130551;1265;98750;-71
2022/03/30 04:19:37;;;;;;;46.40;25.50;;;;;;;3.41;66.91;99025.02;130533;1266;98092;-71
2022/03/30 04:22:41;;;;;;;49.50;25.40;;;;;;;3.35;66.80;99026.50;130490;1265;99170;-71
2022/03/30 04:25:43;;;;;;;47.20;25.60;;;;;;;3.27;66.67;99027.77;130548;1266;99187;-72
2022/03/30 04:28:46;;;;;;;43.30;24.40;;;;;;;3.16;66.53;99029.21;130652;1266;98058;-71
2022/03/30 04:31:49;;;;;;;42.80;23.50;;;;;;;3.08;66.52;99027.61;130313;1268;99152;-71
2022/03/30 04:34:52;;;;;;;46.70;24.70;;;;;;;3.00;66.48;99026.25;130624;1268;98484;-71
2022/03/30 04:37:56;;;;;;;45.00;24.30;;;;;;;2.90;66.33;99031.67;130537;1268;97994;-72
2022/03/30 04:40:58;;;;;;;45.40;24.60;;;;;;;2.83;66.30;99030.42;130501;1268;99149;-71
2022/03/30 04:44:01;;;;;;;45.90;24.60;;;;;;;2.78;66.38;99035.92;130470;1265;97958;-72
2022/03/30 04:47:05;;;;;;;45.50;25.20;;;;;;;2.72;66.31;99039.23;130476;1267;98773;-72
2022/03/30 04:50:09;;;;;;;44.70;24.30;;;;;;;2.68;66.42;99036.39;130457;1265;97980;-73
2022/03/30 04:53:12;;;;;;;53.30;26.70;;;;;;;2.68;66.41;99037.98;130398;1268;99061;-69
2022/03/30 04:56:15;;;;;;;50.40;26.00;;;;;;;2.71;66.71;99039.80;130127;1267;98052;-73
2022/03/30 04:59:17;;;;;;;52.40;27.10;;;;;;;2.77;66.64;99042.81;130189;1265;98683;-72
2022/03/30 05:02:20;;;;;;;52.30;25.60;;;;;;;2.83;66.73;99041.13;130499;1265;98722;-71
2022/03/30 05:05:23;;;;;;;49.20;26.50;;;;;;;2.88;66.78;99041.15;130435;1265;97965;-72
2022/03/30 05:08:26;;;;;;;54.40;26.90;;;;;;;2.95;67.06;99038.48;130464;1265;99168;-71
2022/03/30 05:11:28;;;;;;;54.60;27.90;;;;;;;3.06;67.22;99039.45;130246;1265;98022;-72
2022/03/30 05:14:32;;;;;;;227.30;109.50;;;;;;;3.22;67.45;99039.42;130462;1265;97994;-71
2022/03/30 05:17:35;;;;;;;204.60;96.20;;;;;;;3.39;67.34;99037.35;130476;1268;97975;-72
2022/03/30 05:20:43;;;;;;;71.90;36.30;;;;;;;3.60;67.32;99038.86;130478;1266;98932;-72
2022/03/30 05:23:46;;;;;;;115.80;60.50;;;;;;;3.81;67.20;99039.24;130295;1267;99164;-71
2022/03/30 05:26:49;;;;;;;102.70;50.90;;;;;;;3.99;67.15;99035.36;130140;1268;99269;-72
2022/03/30 05:29:51;;;;;;;210.20;92.70;;;;;;;4.13;67.19;99035.58;130545;1266;98052;-72
2022/03/30 05:32:54;;;;;;;215.60;97.30;;;;;;;4.25;67.06;99037.45;130460;1268;99079;-71
2022/03/30 05:35:57;;;;;;;443.30;214.90;;;;;;;4.39;67.00;99040.09;130466;1266;98158;-71
2022/03/30 05:38:59;;;;;;;201.10;82.40;;;;;;;4.51;66.91;99042.64;130402;1268;97985;-72
2022/03/30 05:42:03;;;;;;;98.70;46.50;;;;;;;4.65;66.89;99041.31;130429;1267;99167;-72
2022/03/30 05:45:08;;;;;;;118.30;64.10;;;;;;;4.78;66.70;99048.95;130380;1268;97972;-72
2022/03/30 05:48:11;;;;;;;258.60;132.50;;;;;;;4.90;66.78;99043.89;130506;1268;98030;-72
2022/03/30 05:51:13;;;;;;;132.00;76.30;;;;;;;5.04;66.81;99045.73;130412;1267;97997;-72
2022/03/30 05:54:17;;;;;;;196.40;105.80;;;;;;;5.21;66.71;99047.24;130417;1268;97996;-72
2022/03/30 05:57:21;;;;;;;91.80;47.90;;;;;;;5.37;66.51;99053.83;130405;1268;98893;-72
2022/03/30 06:00:24;;;;;;;357.70;197.50;;;;;;;5.50;66.34;99055.40;130433;1268;98003;-72
2022/03/30 06:03:27;;;;;;;197.10;99.30;;;;;;;5.57;66.19;99054.38;130346;1268;99264;-71
2022/03/30 06:06:29;;;;;;;113.20;61.00;;;;;;;5.65;65.95;99051.61;130415;1267;97989;-72
2022/03/30 06:09:33;;;;;;;64.30;34.10;;;;;;;5.74;65.70;99050.34;130504;1265;99183;-72
2022/03/30 06:12:36;;;;;;;51.10;26.30;;;;;;;5.80;65.60;99048.70;130556;1266;99233;-72
2022/03/30 06:15:39;;;;;;;37.80;20.60;;;;;;;5.84;65.31;99047.81;130497;1265;98894;-72
2022/03/30 06:18:43;;;;;;;38.20;20.00;;;;;;;5.81;65.08;99045.09;130457;1266;99057;-73
2022/03/30 06:21:48;;;;;;;34.80;19.90;;;;;;;5.80;64.43;99043.48;130546;1265;97961;-72
2022/03/30 06:24:50;;;;;;;32.60;18.20;;;;;;;5.81;64.99;99044.94;130538;1265;99191;-72
2022/03/30 06:27:54;;;;;;;35.20;17.80;;;;;;;5.86;64.88;99047.77;130520;1265;97975;-72
2022/03/30 06:30:57;;;;;;;39.20;21.90;;;;;;;5.88;64.72;99045.83;130422;1267;99262;-72
2022/03/30 06:34:00;;;;;;;41.60;22.40;;;;;;;5.89;64.47;99049.02;130361;1268;98067;-73
2022/03/30 06:37:05;;;;;;;35.20;19.10;;;;;;;5.94;64.35;99056.34;130432;1268;99202;-72
2022/03/30 06:40:11;;;;;;;31.80;17.80;;;;;;;6.01;64.41;99053.05;130421;1265;98164;-72
2022/03/30 06:43:13;;;;;;;33.70;20.40;;;;;;;6.04;63.79;99051.63;130412;1268;98680;-72
2022/03/30 06:46:18;;;;;;;35.90;18.90;;;;;;;6.06;64.39;99055.50;130462;1265;97961;-72
2022/03/30 06:49:21;;;;;;;71.70;34.20;;;;;;;6.10;63.94;99055.63;130581;1265;99169;-72
2022/03/30 06:52:26;;;;;;;87.70;37.90;;;;;;;6.12;63.42;99059.36;130491;1265;97944;-72
2022/03/30 06:55:29;;;;;;;188.80;73.40;;;;;;;6.14;63.98;99061.47;130485;1265;98617;-71
2022/03/30 06:58:31;;;;;;;45.70;21.30;;;;;;;6.26;63.92;99059.16;130512;1265;98864;-73
2022/03/30 07:01:34;;;;;;;182.70;71.10;;;;;;;6.26;63.40;99060.36;130505;1265;97993;-73
2022/03/30 07:04:38;;;;;;;62.60;28.40;;;;;;;6.31;63.91;99059.40;130550;1265;99230;-73
2022/03/30 07:11:02;;;;;;;40.00;19.60;;;;;;;6.33;63.44;99068.72;130439;1265;99213;-73
2022/03/30 07:14:04;;;;;;;36.80;18.80;;;;;;;6.29;62.66;99075.27;130421;1265;98038;-73
2022/03/30 07:17:07;;;;;;;43.20;21.20;;;;;;;6.24;62.43;99073.11;130486;1265;98942;-73
2022/03/30 07:20:11;;;;;;;35.40;18.80;;;;;;;6.27;62.87;99076.59;130376;1268;99110;-73
2022/03/30 07:23:14;;;;;;;35.70;17.50;;;;;;;6.31;62.64;99079.73;130396;1268;98045;-73
2022/03/30 07:26:17;;;;;;;32.80;17.30;;;;;;;6.31;62.33;99080.55;130423;1267;98057;-73
2022/03/30 07:29:20;;;;;;;29.40;15.50;;;;;;;6.37;62.76;99080.86;130433;1267;99055;-72
2022/03/30 07:32:23;;;;;;;31.00;16.70;;;;;;;6.49;62.45;99080.17;130424;1267;97968;-72
2022/03/30 07:35:28;;;;;;;78.20;34.30;;;;;;;6.59;62.26;99081.64;130445;1268;98020;-72
2022/03/30 07:38:31;;;;;;;30.60;16.30;;;;;;;6.68;61.70;99081.98;130435;1268;97988;-73
2022/03/30 07:41:34;;;;;;;27.40;15.40;;;;;;;6.72;61.79;99080.02;130430;1267;98081;-73
2022/03/30 07:44:36;;;;;;;61.60;34.90;;;;;;;6.80;61.54;99082.02;130479;1267;99184;-71
2022/03/30 07:47:40;;;;;;;33.10;16.10;;;;;;;6.89;61.72;99084.05;130446;1267;98435;-73
2022/03/30 07:50:43;;;;;;;23.50;12.30;;;;;;;6.97;60.19;99090.96;130485;1267;99162;-73
2022/03/30 07:53:45;;;;;;;22.10;11.60;;;;;;;6.96;60.04;99090.89;130387;1268;97985;-73
2022/03/30 07:56:48;;;;;;;22.00;9.60;;;;;;;7.04;59.17;99093.34;130423;1268;98043;-71
2022/03/30 07:59:51;;;;;;;21.40;11.90;;;;;;;7.04;58.51;99092.35;130472;1267;99156;-73
2022/03/30 08:02:54;;;;;;;22.00;11.30;;;;;;;7.07;59.60;99092.66;130428;1268;98010;-73
2022/03/30 08:05:56;;;;;;;21.30;11.60;;;;;;;7.13;58.72;99091.52;130475;1268;99243;-73
2022/03/30 08:08:59;;;;;;;23.40;12.70;;;;;;;7.16;58.92;99089.61;130475;1268;99197;-72
2022/03/30 08:12:01;;;;;;;48.50;27.80;;;;;;;7.25;60.28;99089.15;130535;1266;98576;-73
2022/03/30 08:15:06;;;;;;;24.30;12.00;;;;;;;7.41;59.73;99094.08;130407;1268;112434;-74
2022/03/30 08:18:09;;;;;;;46.80;27.10;;;;;;;7.48;57.91;99095.22;130312;1268;112119;-72
2022/03/30 08:24:32;;;;;;;30.20;17.90;;;;;;;7.77;59.26;99095.41;130441;1267;112319;-73
2022/03/30 08:27:36;;;;;;;24.10;12.70;;;;;;;7.90;58.33;99100.55;130430;1267;110766;-73
2022/03/30 08:30:39;;;;;;;98.30;55.70;;;;;;;7.91;56.61;99107.05;130401;1268;112424;-73
2022/03/30 08:33:42;;;;;;;44.80;25.00;;;;;;;7.97;56.80;99105.84;130468;1268;112288;-74
2022/03/30 08:36:45;;;;;;;19.50;11.10;;;;;;;8.04;57.82;99105.41;130526;1268;99066;-73
2022/03/30 08:39:49;;;;;;;32.00;18.00;;;;;;;8.12;57.71;99098.17;130461;1268;112104;-73
2022/03/30 08:42:53;;;;;;;20.00;10.70;;;;;;;8.23;57.49;99097.34;130255;1268;97985;-74
2022/03/30 08:45:59;;;;;;;19.00;10.50;;;;;;;8.28;55.70;99094.86;130281;1268;111710;-73
2022/03/30 08:49:02;;;;;;;16.70;8.50;;;;;;;8.24;54.55;99096.15;130316;1268;112642;-74
2022/03/30 08:52:08;;;;;;;18.10;9.50;;;;;;;8.27;55.60;99097.05;130438;1268;99145;-73
2022/03/30 08:55:11;;;;;;;24.40;13.90;;;;;;;8.33;56.06;99100.37;130429;1266;112142;-73
2022/03/30 08:58:14;;;;;;;21.30;10.40;;;;;;;8.46;56.24;99092.94;130412;1266;112609;-73
2022/03/30 09:01:17;;;;;;;18.00;10.10;;;;;;;8.55;55.44;99091.89;130490;1267;98053;-73
2022/03/30 09:04:20;;;;;;;20.80;8.10;;;;;;;8.70;56.37;99085.55;130459;1267;99176;-73
2022/03/30 09:07:22;;;;;;;16.00;7.60;;;;;;;8.86;56.72;99081.64;130406;1267;97974;-74
2022/03/30 09:10:30;;;;;;;14.80;7.60;;;;;;;8.96;54.46;99082.79;130411;1268;99182;-74
2022/03/30 09:13:34;;;;;;;17.40;7.70;;;;;;;8.90;52.37;99080.82;130464;1265;111998;-73
2022/03/30 09:16:45;;;;;;;16.90;8.50;;;;;;;8.88;53.35;99080.93;130617;1264;118721;-73
2022/03/30 09:19:52;;;;;;;15.30;7.90;;;;;;;8.85;51.59;99079.23;130396;1267;111987;-73
2022/03/30 09:22:58;;;;;;;17.30;8.30;;;;;;;8.75;52.70;99070.27;130455;1267;112275;-74
2022/03/30 09:26:00;;;;;;;17.60;7.90;;;;;;;8.72;53.36;99079.34;130474;1268;112424;-73
2022/03/30 09:29:04;;;;;;;14.70;7.40;;;;;;;8.80;52.92;99075.55;130347;1266;97958;-73
2022/03/30 09:32:08;;;;;;;15.10;8.10;;;;;;;8.77;53.56;99068.75;130415;1268;111409;-74
2022/03/30 09:35:24;;;;;;;19.50;11.90;;;;;;;8.88;53.29;99062.83;130383;1268;112281;-73
2022/03/30 09:38:29;;;;;;;15.60;7.70;;;;;;;8.96;52.28;99061.17;130492;1265;112223;-73
2022/03/30 09:41:47;;;;;;;16.10;6.70;;;;;;;8.79;50.38;99069.34;130619;1265;118889;-73
2022/03/30 09:44:51;;;;;;;13.80;7.20;;;;;;;8.73;51.76;99056.87;130500;1265;112097;-74
2022/03/30 09:47:54;;;;;;;11.80;6.50;;;;;;;8.85;52.00;99049.84;130468;1265;112405;-73
2022/03/30 09:50:58;;;;;;;43.80;16.00;;;;;;;9.03;51.41;99047.48;130447;1265;98067;-74
2022/03/30 09:54:01;;;;;;;18.20;9.50;;;;;;;9.16;51.89;99040.64;130547;1265;112551;-74
2022/03/30 09:57:10;;;;;;;17.20;7.60;;;;;;;9.21;50.33;99038.32;130586;1265;99182;-74
2022/03/30 10:00:15;;;;;;;13.70;6.90;;;;;;;9.01;49.36;99043.73;130563;1265;112322;-74
2022/03/30 10:03:18;;;;;;;13.80;7.40;;;;;;;9.07;51.81;99038.52;130460;1265;112272;-74
2022/03/30 10:06:24;;;;;;;52.60;26.90;;;;;;;9.33;51.12;99033.96;130575;1265;97956;-73
2022/03/30 10:09:26;;;;;;;16.90;7.70;;;;;;;9.60;50.05;99035.66;130560;1265;111267;-73
2022/03/30 10:12:30;;;;;;;14.30;6.50;;;;;;;9.70;49.07;99036.81;130522;1265;99121;-73
2022/03/30 10:15:33;;;;;;;15.40;6.60;;;;;;;9.75;46.69;99041.55;130504;1265;98039;-73
2022/03/30 10:18:35;;;;;;;15.80;7.90;;;;;;;9.64;47.18;99031.09;130465;1265;98059;-73
2022/03/30 10:21:48;;;;;;;11.60;6.10;;;;;;;9.73;49.09;99031.61;130451;1265;99202;-73
2022/03/30 10:25:08;;;;;;;14.70;7.70;;;;;;;9.78;48.17;99034.13;130527;1265;111218;-73
2022/03/30 10:28:20;;;;;;;14.20;6.70;;;;;;;9.79;49.71;99033.82;130556;1265;112512;-71
2022/03/30 10:31:23;;;;;;;12.10;6.50;;;;;;;9.86;47.86;99033.55;130587;1268;110877;-72
2022/03/30 10:34:27;;;;;;;12.40;6.20;;;;;;;9.86;47.59;99034.56;130492;1265;97964;-71
2022/03/30 10:37:34;;;;;;;10.00;5.40;;;;;;;10.00;48.05;99024.23;130488;1265;112486;-71
2022/03/30 10:40:38;;;;;;;23.40;9.00;;;;;;;10.20;47.99;99019.86;130664;1265;111166;-72
2022/03/30 10:43:42;;;;;;;13.80;6.80;;;;;;;10.42;48.78;99016.50;130549;1265;111434;-72
2022/03/30 10:46:45;;;;;;;16.40;7.20;;;;;;;10.46;47.44;99018.50;130478;1265;112377;-72
2022/03/30 10:49:50;;;;;;;11.60;6.30;;;;;;;10.44;47.97;99022.56;130471;1265;99271;-72
2022/03/30 10:52:53;;;;;;;13.80;6.90;;;;;;;10.50;47.16;99021.88;130522;1265;112404;-71
2022/03/30 10:56:15;;;;;;;12.20;7.10;;;;;;;10.43;45.83;99019.48;130599;1265;99626;-71
2022/03/30 10:59:18;;;;;;;11.40;7.20;;;;;;;10.31;44.88;99027.59;130673;1265;112449;-72
2022/03/30 11:02:21;;;;;;;79.20;24.20;;;;;;;10.21;44.94;99024.64;130489;1268;98674;-74
2022/03/30 11:05:28;;;;;;;18.30;8.10;;;;;;;10.28;47.16;99020.14;130443;1268;99178;-72
2022/03/30 11:08:56;;;;;;;14.10;6.90;;;;;;;10.39;47.23;99021.86;130549;1268;112281;-73
2022/03/30 11:12:02;;;;;;;13.80;6.90;;;;;;;10.45;46.76;99019.88;130538;1268;112579;-73
2022/03/30 11:15:08;;;;;;;14.10;7.20;;;;;;;10.47;46.12;99019.38;130485;1267;112374;-73
2022/03/30 11:18:18;;;;;;;18.60;7.10;;;;;;;10.52;47.14;99019.23;130459;1267;112225;-73
2022/03/30 11:21:21;;;;;;;15.50;6.80;;;;;;;10.63;46.78;99017.27;130636;1267;112542;-72
2022/03/30 11:24:25;;;;;;;64.30;34.30;;;;;;;10.67;46.13;99015.47;130581;1266;110560;-71
2022/03/30 11:27:28;;;;;;;16.80;8.70;;;;;;;10.72;46.98;99007.85;130644;1267;112317;-71
2022/03/30 11:30:36;;;;;;;12.30;6.70;;;;;;;10.75;44.94;99009.38;130713;1268;98647;-72
2022/03/30 11:33:38;;;;;;;11.10;6.20;;;;;;;10.57;43.98;99013.11;130628;1267;112358;-71
2022/03/30 11:36:42;;;;;;;11.80;6.10;;;;;;;10.36;44.30;99011.13;130430;1267;97988;-72
2022/03/30 11:39:49;;;;;;;12.30;5.90;;;;;;;10.26;44.71;99011.30;130392;1266;98083;-72
2022/03/30 11:42:54;;;;;;;11.70;5.90;;;;;;;10.31;46.04;99007.75;130468;1267;112267;-72
2022/03/30 11:45:57;;;;;;;9.30;5.80;;;;;;;10.42;46.40;99008.18;130424;1266;112290;-72
2022/03/30 11:49:04;;;;;;;13.10;6.40;;;;;;;10.43;44.09;99012.13;130451;1268;112312;-73
2022/03/30 11:52:17;;;;;;;15.30;8.00;;;;;;;10.22;43.53;99014.38;130448;1268;111417;-72
2022/03/30 11:55:20;;;;;;;10.10;5.80;;;;;;;10.08;44.43;99008.45;130462;1265;112305;-73
2022/03/30 11:58:28;;;;;;;12.50;5.90;;;;;;;10.07;45.09;99009.29;130470;1267;98037;-73
2022/03/30 12:01:35;;;;;;;12.90;5.70;;;;;;;10.06;44.39;99009.59;130531;1267;112278;-73
2022/03/30 12:04:37;;;;;;;12.20;6.90;;;;;;;10.08;44.14;99004.84;130520;1268;112153;-73
2022/03/30 12:07:41;;;;;;;13.60;7.70;;;;;;;10.14;45.92;98999.55;130455;1268;97965;-73
2022/03/30 12:10:43;;;;;;;10.30;5.40;;;;;;;10.30;44.73;98999.27;130568;1266;98751;-73
2022/03/30 12:13:51;;;;;;;12.00;5.20;;;;;;;10.34;44.52;98998.27;130577;1267;97971;-73
2022/03/30 12:16:54;;;;;;;9.20;5.10;;;;;;;10.37;44.72;98995.40;130622;1268;112381;-73
2022/03/30 12:19:57;;;;;;;10.90;5.40;;;;;;;10.43;44.87;98994.77;130439;1268;99137;-73
2022/03/30 12:23:03;;;;;;;10.40;4.80;;;;;;;10.51;45.39;98992.05;130375;1268;183821;-73
2022/03/30 12:26:14;;;;;;;8.90;4.70;;;;;;;10.49;43.84;98994.94;130493;1267;112226;-72
2022/03/30 12:29:18;;;;;;;11.10;5.00;;;;;;;10.45;44.02;98996.41;130492;1267;109862;-73
2022/03/30 12:32:23;;;;;;;12.80;5.90;;;;;;;10.32;43.47;98993.50;130526;1267;112387;-72
2022/03/30 12:35:31;;;;;;;10.40;4.60;;;;;;;10.29;44.35;98992.53;130425;1267;112333;-72
2022/03/30 12:38:35;;;;;;;11.80;4.80;;;;;;;10.29;43.85;98995.45;130460;1268;112328;-73
2022/03/30 12:41:38;;;;;;;9.40;4.60;;;;;;;10.32;44.13;98991.95;130548;1268;112372;-73
2022/03/30 12:44:46;;;;;;;10.90;4.90;;;;;;;10.38;44.55;98993.02;130442;1268;112031;-72
2022/03/30 12:47:51;;;;;;;7.40;4.60;;;;;;;10.39;42.91;98990.38;130491;1266;113298;-73
2022/03/30 12:50:54;;;;;;;10.40;4.90;;;;;;;10.32;42.70;98995.83;130517;1268;112169;-74
2022/03/30 12:53:56;;;;;;;11.00;5.00;;;;;;;10.29;43.29;98986.83;130447;1268;97975;-73
2022/03/30 12:57:00;;;;;;;9.40;5.00;;;;;;;10.33;43.43;98985.20;130448;1268;97987;-73
2022/03/30 13:00:18;;;;;;;11.00;5.80;;;;;;;10.30;42.74;98984.35;130474;1267;112536;-74
2022/03/30 13:03:24;;;;;;;10.30;4.70;;;;;;;10.39;43.98;98984.88;130440;1268;112523;-72
2022/03/30 13:06:27;;;;;;;10.00;5.80;;;;;;;10.48;42.99;98988.44;130553;1268;112277;-72
2022/03/30 13:09:30;;;;;;;11.70;6.10;;;;;;;10.42;42.22;98988.77;130440;1268;112277;-72
2022/03/30 13:12:33;;;;;;;9.60;4.70;;;;;;;10.37;42.86;98980.91;130404;1266;98070;-73
2022/03/30 13:15:36;;;;;;;8.30;4.90;;;;;;;10.48;43.57;98982.08;130535;1268;112238;-73
2022/03/30 13:18:39;;;;;;;12.00;5.40;;;;;;;10.48;41.94;98980.48;130458;1267;98718;-73
2022/03/30 13:21:44;;;;;;;10.00;4.80;;;;;;;10.40;42.17;98979.55;130495;1268;112430;-73
2022/03/30 13:24:52;;;;;;;20.50;12.00;;;;;;;10.38;42.14;98977.18;130509;1268;112195;-73
2022/03/30 13:27:54;;;;;;;16.80;9.30;;;;;;;10.33;41.90;98970.14;130510;1267;119814;-73
2022/03/30 13:30:58;;;;;;;11.10;6.60;;;;;;;10.34;42.30;98966.52;130510;1268;98751;-73
2022/03/30 13:34:01;;;;;;;10.30;5.60;;;;;;;10.35;42.76;98960.89;130622;1268;112018;-73
2022/03/30 13:37:04;;;;;;;8.70;4.60;;;;;;;10.38;41.86;98960.25;130552;1267;98706;-73
2022/03/30 13:40:09;;;;;;;11.10;4.60;;;;;;;10.37;41.78;98955.23;130436;1267;112274;-72
2022/03/30 13:43:12;;;;;;;9.50;4.90;;;;;;;10.42;42.45;98951.48;130630;1268;112422;-72
2022/03/30 13:46:15;;;;;;;9.30;4.70;;;;;;;10.41;41.10;98951.06;130458;1268;97991;-73
2022/03/30 13:49:40;;;;;;;11.20;5.70;;;;;;;10.35;41.80;98951.46;130634;1268;99239;-73
2022/03/30 13:52:41;;;;;;;10.80;4.90;;;;;;;10.44;42.20;98946.76;130500;1267;112263;-72
2022/03/30 13:55:44;;;;;;;10.80;4.60;;;;;;;10.47;41.50;98945.65;130454;1268;99123;-73
2022/03/30 13:58:52;;;;;;;12.30;4.70;;;;;;;10.52;42.22;98941.35;130570;1268;99103;-73
2022/03/30 14:01:55;;;;;;;11.40;5.90;;;;;;;10.70;42.65;98942.95;130410;1268;118391;-72
2022/03/30 14:04:58;;;;;;;35.60;16.10;;;;;;;10.80;42.36;98940.80;130408;1268;97998;-72
2022/03/30 14:08:01;;;;;;;22.20;11.10;;;;;;;10.73;40.46;98940.06;130458;1268;97991;-72
2022/03/30 14:11:04;;;;;;;10.00;5.50;;;;;;;10.52;40.66;98942.67;130411;1268;98382;-72
2022/03/30 14:14:07;;;;;;;10.20;5.40;;;;;;;10.36;41.50;98939.17;130523;1268;112542;-71
2022/03/30 14:17:10;;;;;;;10.10;5.00;;;;;;;10.37;41.56;98940.91;130661;1268;98049;-72